Flight Track Log - Related Links

Times and Time Zones

All times are in EDT time to prevent confusion due to time zone crossing. See the CTL17 flight status page for this flight to view local times or setup timezone preferences in your user account.

Time Position Orientation Groundspeed Altitude Reporting Facility
EDT Latitude Longitude Course Direction KTS MPH feet Rate Location/Type
Wed 03:53:54 PM 42.6700 -83.3817 North 129 148 1,700  Level Cleveland Center
Wed 03:55:08 PM 42.7181 -83.3781 North 151 174 2,800 892 Climbing Cleveland Center
Wed 03:57:00 PM 42.7845 -83.3832 North  Level FlightAware Approximate
Wed 04:04:00 PM 43.0014 -83.4782 321° Northwest  Level FlightAware Approximate
Wed 04:05:00 PM 43.0288 -83.5084 321° Northwest  Level FlightAware Approximate
Wed 04:06:00 PM 43.0561 -83.5386 321° Northwest  Level FlightAware Approximate
Wed 04:07:00 PM 43.0835 -83.5689 321° Northwest  Level FlightAware Approximate
Wed 04:08:00 PM 43.1109 -83.5992 321° Northwest  Level FlightAware Approximate
Wed 04:09:00 PM 43.1382 -83.6295 321° Northwest  Level FlightAware Approximate
Wed 04:10:00 PM 43.1656 -83.6598 321° Northwest  Level FlightAware Approximate
Wed 04:11:00 PM 43.1929 -83.6902 321° Northwest  Level FlightAware Approximate
Wed 04:12:00 PM 43.2201 -83.7208 318° Northwest  Level FlightAware Approximate
Wed 04:13:00 PM 43.2464 -83.7529 318° Northwest  Level FlightAware Approximate
Wed 04:14:00 PM 43.2727 -83.7850 318° Northwest  Level FlightAware Approximate
Wed 04:15:00 PM 43.2990 -83.8171 318° Northwest  Level FlightAware Approximate
Wed 04:16:00 PM 43.3252 -83.8492 318° Northwest  Level FlightAware Approximate
Wed 04:17:00 PM 43.3515 -83.8814 318° Northwest  Level FlightAware Approximate
Wed 04:18:00 PM 43.3787 -83.9120 324° Northwest  Level FlightAware Approximate
Wed 04:19:00 PM 43.4072 -83.9404 324° Northwest  Level FlightAware Approximate
Wed 04:20:00 PM 43.4357 -83.9689 324° Northwest  Level FlightAware Approximate
Wed 04:21:00 PM 43.4641 -83.9974 324° Northwest  Level FlightAware Approximate
Wed 04:22:00 PM 43.4926 -84.0259 324° Northwest  Level FlightAware Approximate
Wed 04:23:00 PM 43.5148 -84.0628 305° West  Level FlightAware Approximate
Wed 04:24:00 PM 43.5167 -84.0667 305° West  Level FlightAware Approximate

Login

Don't have an account? Register now (free) for customized features, flight alerts, and more!